sensor_id;sensor_type;location;lat;lon;timestamp;temperature;humidity
41304;DHT22;51002;51.462;7.218;2023-05-07T00:01:42;16.10;81.90
41304;DHT22;51002;51.462;7.218;2023-05-07T00:04:08;16.20;81.90
41304;DHT22;51002;51.462;7.218;2023-05-07T00:06:33;16.10;81.80
41304;DHT22;51002;51.462;7.218;2023-05-07T00:08:59;16.10;81.80
41304;DHT22;51002;51.462;7.218;2023-05-07T00:11:25;16.10;81.90
41304;DHT22;51002;51.462;7.218;2023-05-07T00:13:51;16.10;82.20
41304;DHT22;51002;51.462;7.218;2023-05-07T00:16:16;16.10;82.30
41304;DHT22;51002;51.462;7.218;2023-05-07T00:18:42;16.10;82.20
41304;DHT22;51002;51.462;7.218;2023-05-07T00:21:07;16.10;82.30
41304;DHT22;51002;51.462;7.218;2023-05-07T00:23:33;16.10;82.20
41304;DHT22;51002;51.462;7.218;2023-05-07T00:25:58;16.10;82.10
41304;DHT22;51002;51.462;7.218;2023-05-07T00:28:24;16.00;82.10
41304;DHT22;51002;51.462;7.218;2023-05-07T00:30:49;16.00;82.20
41304;DHT22;51002;51.462;7.218;2023-05-07T00:33:15;16.00;82.40
41304;DHT22;51002;51.462;7.218;2023-05-07T00:35:41;16.00;82.30
41304;DHT22;51002;51.462;7.218;2023-05-07T00:38:06;16.00;82.50
41304;DHT22;51002;51.462;7.218;2023-05-07T00:40:32;16.10;82.50
41304;DHT22;51002;51.462;7.218;2023-05-07T00:42:58;16.00;82.30
41304;DHT22;51002;51.462;7.218;2023-05-07T00:45:27;16.00;82.40
41304;DHT22;51002;51.462;7.218;2023-05-07T00:47:57;16.00;82.30
41304;DHT22;51002;51.462;7.218;2023-05-07T00:50:26;16.00;82.50
41304;DHT22;51002;51.462;7.218;2023-05-07T00:52:51;16.00;82.40
41304;DHT22;51002;51.462;7.218;2023-05-07T00:55:17;15.80;82.10
41304;DHT22;51002;51.462;7.218;2023-05-07T00:57:43;15.70;82.50
41304;DHT22;51002;51.462;7.218;2023-05-07T01:00:09;15.70;82.90
41304;DHT22;51002;51.462;7.218;2023-05-07T01:02:35;15.60;83.00
41304;DHT22;51002;51.462;7.218;2023-05-07T01:05:01;15.70;83.10
41304;DHT22;51002;51.462;7.218;2023-05-07T01:07:28;15.70;82.80
41304;DHT22;51002;51.462;7.218;2023-05-07T01:09:54;15.80;82.70
41304;DHT22;51002;51.462;7.218;2023-05-07T01:12:20;15.80;83.40
41304;DHT22;51002;51.462;7.218;2023-05-07T01:14:46;15.90;83.30
41304;DHT22;51002;51.462;7.218;2023-05-07T01:17:11;15.80;82.80
41304;DHT22;51002;51.462;7.218;2023-05-07T01:19:37;15.80;83.00
41304;DHT22;51002;51.462;7.218;2023-05-07T01:22:03;15.80;83.10
41304;DHT22;51002;51.462;7.218;2023-05-07T01:24:34;15.80;83.20
41304;DHT22;51002;51.462;7.218;2023-05-07T01:27:01;15.80;83.20
41304;DHT22;51002;51.462;7.218;2023-05-07T01:29:27;15.80;83.30
41304;DHT22;51002;51.462;7.218;2023-05-07T01:31:52;15.70;83.20
41304;DHT22;51002;51.462;7.218;2023-05-07T01:34:20;15.70;83.30
41304;DHT22;51002;51.462;7.218;2023-05-07T01:36:46;15.70;83.60
41304;DHT22;51002;51.462;7.218;2023-05-07T01:39:12;15.70;83.60
41304;DHT22;51002;51.462;7.218;2023-05-07T01:41:38;15.80;83.50
41304;DHT22;51002;51.462;7.218;2023-05-07T01:44:03;15.80;83.50
41304;DHT22;51002;51.462;7.218;2023-05-07T01:46:30;15.80;83.60
41304;DHT22;51002;51.462;7.218;2023-05-07T01:48:56;15.80;83.50
41304;DHT22;51002;51.462;7.218;2023-05-07T01:51:22;15.80;83.40
41304;DHT22;51002;51.462;7.218;2023-05-07T01:53:47;15.70;83.20
41304;DHT22;51002;51.462;7.218;2023-05-07T01:56:19;15.70;83.30
41304;DHT22;51002;51.462;7.218;2023-05-07T01:58:45;15.70;83.50
41304;DHT22;51002;51.462;7.218;2023-05-07T02:01:13;15.60;83.60
41304;DHT22;51002;51.462;7.218;2023-05-07T02:03:39;15.40;84.10
41304;DHT22;51002;51.462;7.218;2023-05-07T02:06:05;15.50;84.30
41304;DHT22;51002;51.462;7.218;2023-05-07T02:08:33;15.30;84.50
41304;DHT22;51002;51.462;7.218;2023-05-07T02:10:58;15.30;84.80
41304;DHT22;51002;51.462;7.218;2023-05-07T02:13:24;15.20;84.90
41304;DHT22;51002;51.462;7.218;2023-05-07T02:15:49;15.20;85.10
41304;DHT22;51002;51.462;7.218;2023-05-07T02:18:16;15.30;85.10
41304;DHT22;51002;51.462;7.218;2023-05-07T02:20:41;15.20;85.20
41304;DHT22;51002;51.462;7.218;2023-05-07T02:23:09;15.20;85.40
41304;DHT22;51002;51.462;7.218;2023-05-07T02:25:35;15.30;85.20
41304;DHT22;51002;51.462;7.218;2023-05-07T02:28:03;15.30;85.00
41304;DHT22;51002;51.462;7.218;2023-05-07T02:30:28;15.40;84.80
41304;DHT22;51002;51.462;7.218;2023-05-07T02:32:54;15.50;84.50
41304;DHT22;51002;51.462;7.218;2023-05-07T02:35:19;15.40;84.70
41304;DHT22;51002;51.462;7.218;2023-05-07T02:37:45;15.30;85.00
41304;DHT22;51002;51.462;7.218;2023-05-07T02:40:12;15.30;85.10
41304;DHT22;51002;51.462;7.218;2023-05-07T02:42:38;15.30;85.10
41304;DHT22;51002;51.462;7.218;2023-05-07T02:45:06;15.30;85.40
41304;DHT22;51002;51.462;7.218;2023-05-07T02:47:31;15.30;85.10
41304;DHT22;51002;51.462;7.218;2023-05-07T02:49:57;15.20;85.30
41304;DHT22;51002;51.462;7.218;2023-05-07T02:52:22;15.20;85.50
41304;DHT22;51002;51.462;7.218;2023-05-07T02:54:50;15.20;85.40
41304;DHT22;51002;51.462;7.218;2023-05-07T02:57:18;15.40;85.40
41304;DHT22;51002;51.462;7.218;2023-05-07T02:59:43;15.40;85.10
41304;DHT22;51002;51.462;7.218;2023-05-07T03:02:09;15.40;84.80
41304;DHT22;51002;51.462;7.218;2023-05-07T03:04:35;15.30;85.20
41304;DHT22;51002;51.462;7.218;2023-05-07T03:07:00;15.40;85.10
41304;DHT22;51002;51.462;7.218;2023-05-07T03:09:28;15.40;85.00
41304;DHT22;51002;51.462;7.218;2023-05-07T03:11:54;15.30;85.10
41304;DHT22;51002;51.462;7.218;2023-05-07T03:14:19;15.20;85.40
41304;DHT22;51002;51.462;7.218;2023-05-07T03:16:47;15.30;85.10
41304;DHT22;51002;51.462;7.218;2023-05-07T03:19:12;15.30;85.00
41304;DHT22;51002;51.462;7.218;2023-05-07T03:21:38;15.40;84.90
41304;DHT22;51002;51.462;7.218;2023-05-07T03:24:03;15.40;84.70
41304;DHT22;51002;51.462;7.218;2023-05-07T03:26:29;15.40;84.70
41304;DHT22;51002;51.462;7.218;2023-05-07T03:28:54;15.40;84.80
41304;DHT22;51002;51.462;7.218;2023-05-07T03:31:20;15.40;84.80
41304;DHT22;51002;51.462;7.218;2023-05-07T03:33:51;15.40;85.00
41304;DHT22;51002;51.462;7.218;2023-05-07T03:36:20;15.40;85.00
41304;DHT22;51002;51.462;7.218;2023-05-07T03:38:45;15.40;84.90
41304;DHT22;51002;51.462;7.218;2023-05-07T03:41:11;15.30;85.00
41304;DHT22;51002;51.462;7.218;2023-05-07T03:43:37;15.40;85.00
41304;DHT22;51002;51.462;7.218;2023-05-07T03:46:02;15.30;85.00
41304;DHT22;51002;51.462;7.218;2023-05-07T03:48:32;15.40;85.10
41304;DHT22;51002;51.462;7.218;2023-05-07T03:51:00;15.30;85.10
41304;DHT22;51002;51.462;7.218;2023-05-07T03:53:30;15.30;85.00
41304;DHT22;51002;51.462;7.218;2023-05-07T03:55:56;15.30;85.00
41304;DHT22;51002;51.462;7.218;2023-05-07T03:58:21;15.20;84.90
41304;DHT22;51002;51.462;7.218;2023-05-07T04:00:47;15.20;85.20
41304;DHT22;51002;51.462;7.218;2023-05-07T04:03:15;15.10;85.40
41304;DHT22;51002;51.462;7.218;2023-05-07T04:05:43;15.10;85.70
41304;DHT22;51002;51.462;7.218;2023-05-07T04:08:08;15.20;85.40
41304;DHT22;51002;51.462;7.218;2023-05-07T04:10:33;15.10;85.70
41304;DHT22;51002;51.462;7.218;2023-05-07T04:13:01;15.10;85.50
41304;DHT22;51002;51.462;7.218;2023-05-07T04:15:30;15.00;85.90
41304;DHT22;51002;51.462;7.218;2023-05-07T04:17:55;14.90;86.00
41304;DHT22;51002;51.462;7.218;2023-05-07T04:20:20;14.90;86.30
41304;DHT22;51002;51.462;7.218;2023-05-07T04:22:46;15.00;86.00
41304;DHT22;51002;51.462;7.218;2023-05-07T04:25:11;15.10;86.20
41304;DHT22;51002;51.462;7.218;2023-05-07T04:27:37;15.10;85.80
41304;DHT22;51002;51.462;7.218;2023-05-07T04:30:03;14.90;85.80
41304;DHT22;51002;51.462;7.218;2023-05-07T04:32:29;14.90;86.00
41304;DHT22;51002;51.462;7.218;2023-05-07T04:34:57;15.00;86.00
41304;DHT22;51002;51.462;7.218;2023-05-07T04:37:22;15.00;86.00
41304;DHT22;51002;51.462;7.218;2023-05-07T04:39:48;15.10;85.70
41304;DHT22;51002;51.462;7.218;2023-05-07T04:42:17;15.10;85.60
41304;DHT22;51002;51.462;7.218;2023-05-07T04:44:45;15.00;85.80
41304;DHT22;51002;51.462;7.218;2023-05-07T04:47:11;15.00;86.00
41304;DHT22;51002;51.462;7.218;2023-05-07T04:49:37;15.00;85.90
41304;DHT22;51002;51.462;7.218;2023-05-07T04:52:05;15.00;85.90
41304;DHT22;51002;51.462;7.218;2023-05-07T04:54:33;15.10;86.00
41304;DHT22;51002;51.462;7.218;2023-05-07T04:56:58;15.00;86.00
41304;DHT22;51002;51.462;7.218;2023-05-07T04:59:23;15.00;85.90
41304;DHT22;51002;51.462;7.218;2023-05-07T05:01:49;15.10;85.80
41304;DHT22;51002;51.462;7.218;2023-05-07T05:04:15;15.20;85.50
41304;DHT22;51002;51.462;7.218;2023-05-07T05:06:40;15.20;85.40
41304;DHT22;51002;51.462;7.218;2023-05-07T05:09:08;15.20;85.20
41304;DHT22;51002;51.462;7.218;2023-05-07T05:11:33;15.30;85.30
41304;DHT22;51002;51.462;7.218;2023-05-07T05:14:01;15.20;85.20
41304;DHT22;51002;51.462;7.218;2023-05-07T05:16:27;15.20;85.10
41304;DHT22;51002;51.462;7.218;2023-05-07T05:18:55;15.20;85.20
41304;DHT22;51002;51.462;7.218;2023-05-07T05:21:20;15.20;84.80
41304;DHT22;51002;51.462;7.218;2023-05-07T05:23:46;15.30;85.50
41304;DHT22;51002;51.462;7.218;2023-05-07T05:26:11;15.50;85.40
41304;DHT22;51002;51.462;7.218;2023-05-07T05:28:37;15.60;85.20
41304;DHT22;51002;51.462;7.218;2023-05-07T05:31:02;15.50;84.90
41304;DHT22;51002;51.462;7.218;2023-05-07T05:33:28;15.60;84.40
41304;DHT22;51002;51.462;7.218;2023-05-07T05:35:53;15.40;84.30
41304;DHT22;51002;51.462;7.218;2023-05-07T05:38:19;15.60;84.90
41304;DHT22;51002;51.462;7.218;2023-05-07T05:40:46;15.80;84.00
41304;DHT22;51002;51.462;7.218;2023-05-07T05:43:11;15.80;84.00
41304;DHT22;51002;51.462;7.218;2023-05-07T05:45:37;15.80;83.40
41304;DHT22;51002;51.462;7.218;2023-05-07T05:48:02;15.70;83.40
41304;DHT22;51002;51.462;7.218;2023-05-07T05:50:28;15.80;83.80
41304;DHT22;51002;51.462;7.218;2023-05-07T05:52:53;15.70;83.40
41304;DHT22;51002;51.462;7.218;2023-05-07T05:55:19;15.70;83.50
41304;DHT22;51002;51.462;7.218;2023-05-07T05:57:45;15.80;83.30
41304;DHT22;51002;51.462;7.218;2023-05-07T06:00:13;15.80;83.10
41304;DHT22;51002;51.462;7.218;2023-05-07T06:02:41;15.90;82.60
41304;DHT22;51002;51.462;7.218;2023-05-07T06:05:08;16.10;82.40
41304;DHT22;51002;51.462;7.218;2023-05-07T06:07:36;16.10;82.80
41304;DHT22;51002;51.462;7.218;2023-05-07T06:10:04;16.10;82.10
41304;DHT22;51002;51.462;7.218;2023-05-07T06:12:29;16.00;82.20
41304;DHT22;51002;51.462;7.218;2023-05-07T06:14:57;16.20;82.00
41304;DHT22;51002;51.462;7.218;2023-05-07T06:17:25;16.30;81.50
41304;DHT22;51002;51.462;7.218;2023-05-07T06:19:50;16.30;80.80
41304;DHT22;51002;51.462;7.218;2023-05-07T06:22:16;16.40;80.40
41304;DHT22;51002;51.462;7.218;2023-05-07T06:24:41;16.50;80.70
41304;DHT22;51002;51.462;7.218;2023-05-07T06:27:11;16.60;80.70
41304;DHT22;51002;51.462;7.218;2023-05-07T06:29:37;16.60;80.30
41304;DHT22;51002;51.462;7.218;2023-05-07T06:32:11;16.50;80.80
41304;DHT22;51002;51.462;7.218;2023-05-07T06:34:37;16.50;80.00
41304;DHT22;51002;51.462;7.218;2023-05-07T06:37:02;16.60;80.00
41304;DHT22;51002;51.462;7.218;2023-05-07T06:39:28;16.70;79.70
41304;DHT22;51002;51.462;7.218;2023-05-07T06:41:54;16.80;80.10
41304;DHT22;51002;51.462;7.218;2023-05-07T06:44:22;16.90;80.10
41304;DHT22;51002;51.462;7.218;2023-05-07T06:46:47;17.00;79.80
41304;DHT22;51002;51.462;7.218;2023-05-07T06:49:13;17.10;79.40
41304;DHT22;51002;51.462;7.218;2023-05-07T06:51:41;17.10;78.50
41304;DHT22;51002;51.462;7.218;2023-05-07T06:54:06;17.00;78.20
41304;DHT22;51002;51.462;7.218;2023-05-07T06:56:32;17.20;79.20
41304;DHT22;51002;51.462;7.218;2023-05-07T06:58:57;17.10;78.40
41304;DHT22;51002;51.462;7.218;2023-05-07T07:01:23;17.10;78.10
41304;DHT22;51002;51.462;7.218;2023-05-07T07:03:48;17.10;78.00
41304;DHT22;51002;51.462;7.218;2023-05-07T07:06:14;17.10;77.40
41304;DHT22;51002;51.462;7.218;2023-05-07T07:08:39;17.20;77.10
41304;DHT22;51002;51.462;7.218;2023-05-07T07:11:05;17.30;76.70
41304;DHT22;51002;51.462;7.218;2023-05-07T07:13:31;17.40;76.80
41304;DHT22;51002;51.462;7.218;2023-05-07T07:15:56;17.60;76.60
41304;DHT22;51002;51.462;7.218;2023-05-07T07:18:22;17.60;75.80
41304;DHT22;51002;51.462;7.218;2023-05-07T07:20:50;17.60;75.40
41304;DHT22;51002;51.462;7.218;2023-05-07T07:23:15;17.70;76.10
41304;DHT22;51002;51.462;7.218;2023-05-07T07:25:41;17.80;75.20
41304;DHT22;51002;51.462;7.218;2023-05-07T07:28:06;17.80;75.20
41304;DHT22;51002;51.462;7.218;2023-05-07T07:30:34;17.80;75.20
41304;DHT22;51002;51.462;7.218;2023-05-07T07:33:00;17.90;75.70
41304;DHT22;51002;51.462;7.218;2023-05-07T07:35:28;17.90;75.30
41304;DHT22;51002;51.462;7.218;2023-05-07T07:37:53;17.90;74.50
41304;DHT22;51002;51.462;7.218;2023-05-07T07:40:19;17.80;73.80
41304;DHT22;51002;51.462;7.218;2023-05-07T07:42:47;17.80;74.40
41304;DHT22;51002;51.462;7.218;2023-05-07T07:45:13;18.00;75.20
41304;DHT22;51002;51.462;7.218;2023-05-07T07:47:39;18.20;74.90
41304;DHT22;51002;51.462;7.218;2023-05-07T07:50:05;18.30;75.80
41304;DHT22;51002;51.462;7.218;2023-05-07T07:52:31;18.30;75.00
41304;DHT22;51002;51.462;7.218;2023-05-07T07:54:59;18.40;74.40
41304;DHT22;51002;51.462;7.218;2023-05-07T07:57:25;18.50;73.10
41304;DHT22;51002;51.462;7.218;2023-05-07T07:59:52;18.70;74.50
41304;DHT22;51002;51.462;7.218;2023-05-07T08:02:17;18.70;74.00
41304;DHT22;51002;51.462;7.218;2023-05-07T08:04:43;18.80;74.50
41304;DHT22;51002;51.462;7.218;2023-05-07T08:07:09;18.60;73.40
41304;DHT22;51002;51.462;7.218;2023-05-07T08:09:37;18.80;75.20
41304;DHT22;51002;51.462;7.218;2023-05-07T08:12:03;18.80;74.80
41304;DHT22;51002;51.462;7.218;2023-05-07T08:14:29;18.80;73.90
41304;DHT22;51002;51.462;7.218;2023-05-07T08:16:56;18.90;74.40
41304;DHT22;51002;51.462;7.218;2023-05-07T08:19:24;18.80;73.10
41304;DHT22;51002;51.462;7.218;2023-05-07T08:21:50;18.80;74.30
41304;DHT22;51002;51.462;7.218;2023-05-07T08:24:18;18.80;73.80
41304;DHT22;51002;51.462;7.218;2023-05-07T08:26:43;19.00;74.40
41304;DHT22;51002;51.462;7.218;2023-05-07T08:29:09;19.20;74.70
41304;DHT22;51002;51.462;7.218;2023-05-07T08:31:37;19.20;74.40
41304;DHT22;51002;51.462;7.218;2023-05-07T08:34:05;19.20;74.00
41304;DHT22;51002;51.462;7.218;2023-05-07T08:36:31;19.10;73.60
41304;DHT22;51002;51.462;7.218;2023-05-07T08:38:57;19.30;72.50
41304;DHT22;51002;51.462;7.218;2023-05-07T08:41:22;19.30;73.90
41304;DHT22;51002;51.462;7.218;2023-05-07T08:43:48;19.30;72.40
41304;DHT22;51002;51.462;7.218;2023-05-07T08:46:19;19.90;71.90
41304;DHT22;51002;51.462;7.218;2023-05-07T08:48:45;20.70;71.60
41304;DHT22;51002;51.462;7.218;2023-05-07T08:51:13;21.20;66.50
41304;DHT22;51002;51.462;7.218;2023-05-07T08:53:41;21.80;64.00
41304;DHT22;51002;51.462;7.218;2023-05-07T08:56:09;21.80;65.10
41304;DHT22;51002;51.462;7.218;2023-05-07T08:58:35;21.70;64.30
41304;DHT22;51002;51.462;7.218;2023-05-07T09:01:01;21.30;65.10
41304;DHT22;51002;51.462;7.218;2023-05-07T09:03:28;21.30;64.70
41304;DHT22;51002;51.462;7.218;2023-05-07T09:05:57;21.20;64.90
41304;DHT22;51002;51.462;7.218;2023-05-07T09:08:26;21.30;64.30
41304;DHT22;51002;51.462;7.218;2023-05-07T09:10:52;21.20;64.40
41304;DHT22;51002;51.462;7.218;2023-05-07T09:13:17;21.20;64.20
41304;DHT22;51002;51.462;7.218;2023-05-07T09:15:43;21.30;65.60
41304;DHT22;51002;51.462;7.218;2023-05-07T09:18:09;21.70;65.50
41304;DHT22;51002;51.462;7.218;2023-05-07T09:20:36;22.00;66.50
41304;DHT22;51002;51.462;7.218;2023-05-07T09:23:01;22.30;61.70
41304;DHT22;51002;51.462;7.218;2023-05-07T09:25:30;22.30;60.80
41304;DHT22;51002;51.462;7.218;2023-05-07T09:27:56;22.40;60.80
41304;DHT22;51002;51.462;7.218;2023-05-07T09:30:21;22.80;59.20
41304;DHT22;51002;51.462;7.218;2023-05-07T09:32:47;23.50;60.20
41304;DHT22;51002;51.462;7.218;2023-05-07T09:35:18;23.90;60.10
41304;DHT22;51002;51.462;7.218;2023-05-07T09:37:46;23.70;57.60
41304;DHT22;51002;51.462;7.218;2023-05-07T09:40:25;23.80;60.00
41304;DHT22;51002;51.462;7.218;2023-05-07T09:42:51;23.50;57.00
41304;DHT22;51002;51.462;7.218;2023-05-07T09:45:22;23.70;56.70
41304;DHT22;51002;51.462;7.218;2023-05-07T09:47:48;23.80;57.60
41304;DHT22;51002;51.462;7.218;2023-05-07T09:50:15;23.90;59.60
41304;DHT22;51002;51.462;7.218;2023-05-07T09:52:41;24.20;59.10
41304;DHT22;51002;51.462;7.218;2023-05-07T09:55:07;24.20;54.90
41304;DHT22;51002;51.462;7.218;2023-05-07T09:57:33;23.70;57.10
41304;DHT22;51002;51.462;7.218;2023-05-07T09:59:59;23.60;54.30
41304;DHT22;51002;51.462;7.218;2023-05-07T10:02:25;23.90;57.90
41304;DHT22;51002;51.462;7.218;2023-05-07T10:04:52;23.80;53.30
41304;DHT22;51002;51.462;7.218;2023-05-07T10:07:19;23.70;53.00
41304;DHT22;51002;51.462;7.218;2023-05-07T10:09:46;23.90;57.10
41304;DHT22;51002;51.462;7.218;2023-05-07T10:12:11;24.10;54.90
41304;DHT22;51002;51.462;7.218;2023-05-07T10:14:37;24.20;58.60
41304;DHT22;51002;51.462;7.218;2023-05-07T10:17:03;24.00;56.30
41304;DHT22;51002;51.462;7.218;2023-05-07T10:19:29;23.80;55.20
41304;DHT22;51002;51.462;7.218;2023-05-07T10:21:55;23.60;55.60
41304;DHT22;51002;51.462;7.218;2023-05-07T10:24:25;23.70;52.10
41304;DHT22;51002;51.462;7.218;2023-05-07T10:26:51;23.90;52.30
41304;DHT22;51002;51.462;7.218;2023-05-07T10:31:48;23.70;53.20
41304;DHT22;51002;51.462;7.218;2023-05-07T10:34:16;23.80;51.80
41304;DHT22;51002;51.462;7.218;2023-05-07T10:36:46;23.50;54.20
41304;DHT22;51002;51.462;7.218;2023-05-07T10:39:12;23.70;53.80
41304;DHT22;51002;51.462;7.218;2023-05-07T10:41:38;23.60;55.30
41304;DHT22;51002;51.462;7.218;2023-05-07T10:44:04;23.70;53.40
41304;DHT22;51002;51.462;7.218;2023-05-07T10:46:31;23.60;56.00
41304;DHT22;51002;51.462;7.218;2023-05-07T10:51:28;23.70;53.30
41304;DHT22;51002;51.462;7.218;2023-05-07T10:56:42;23.70;52.70
41304;DHT22;51002;51.462;7.218;2023-05-07T11:04:23;23.60;52.30
41304;DHT22;51002;51.462;7.218;2023-05-07T11:17:27;23.50;55.50
41304;DHT22;51002;51.462;7.218;2023-05-07T11:19:59;23.50;52.90
41304;DHT22;51002;51.462;7.218;2023-05-07T11:24:56;23.60;54.80
41304;DHT22;51002;51.462;7.218;2023-05-07T11:27:28;23.50;53.50
41304;DHT22;51002;51.462;7.218;2023-05-07T11:29:56;23.30;55.10
41304;DHT22;51002;51.462;7.218;2023-05-07T11:32:22;23.40;54.70
41304;DHT22;51002;51.462;7.218;2023-05-07T11:34:58;23.40;55.70
41304;DHT22;51002;51.462;7.218;2023-05-07T11:37:28;23.30;55.10
41304;DHT22;51002;51.462;7.218;2023-05-07T11:40:06;23.00;53.90
41304;DHT22;51002;51.462;7.218;2023-05-07T11:42:33;23.00;55.10
41304;DHT22;51002;51.462;7.218;2023-05-07T11:45:02;23.00;55.30
41304;DHT22;51002;51.462;7.218;2023-05-07T11:47:31;22.80;56.90
41304;DHT22;51002;51.462;7.218;2023-05-07T11:50:03;23.00;56.00
41304;DHT22;51002;51.462;7.218;2023-05-07T11:52:31;23.00;57.20
41304;DHT22;51002;51.462;7.218;2023-05-07T11:54:58;22.90;57.70
41304;DHT22;51002;51.462;7.218;2023-05-07T11:57:27;22.90;57.60
41304;DHT22;51002;51.462;7.218;2023-05-07T11:59:55;22.90;57.50
41304;DHT22;51002;51.462;7.218;2023-05-07T12:02:21;23.20;57.30
41304;DHT22;51002;51.462;7.218;2023-05-07T12:04:53;23.30;56.50
41304;DHT22;51002;51.462;7.218;2023-05-07T12:07:23;23.20;56.90
41304;DHT22;51002;51.462;7.218;2023-05-07T12:09:48;23.10;56.60
41304;DHT22;51002;51.462;7.218;2023-05-07T12:12:16;22.80;58.70
41304;DHT22;51002;51.462;7.218;2023-05-07T12:14:43;23.00;58.80
41304;DHT22;51002;51.462;7.218;2023-05-07T12:17:11;23.10;59.20
41304;DHT22;51002;51.462;7.218;2023-05-07T12:19:37;22.90;56.90
41304;DHT22;51002;51.462;7.218;2023-05-07T12:22:03;22.80;58.00
41304;DHT22;51002;51.462;7.218;2023-05-07T12:24:47;22.80;56.90
41304;DHT22;51002;51.462;7.218;2023-05-07T12:27:13;22.80;59.10
41304;DHT22;51002;51.462;7.218;2023-05-07T12:29:43;22.80;58.30
41304;DHT22;51002;51.462;7.218;2023-05-07T12:32:12;22.90;59.70
41304;DHT22;51002;51.462;7.218;2023-05-07T12:34:40;22.80;58.30
41304;DHT22;51002;51.462;7.218;2023-05-07T12:37:06;22.80;58.20
41304;DHT22;51002;51.462;7.218;2023-05-07T12:39:33;22.80;57.90
41304;DHT22;51002;51.462;7.218;2023-05-07T12:41:59;22.80;58.70
41304;DHT22;51002;51.462;7.218;2023-05-07T12:44:25;22.50;59.80
41304;DHT22;51002;51.462;7.218;2023-05-07T12:46:54;22.60;59.30
41304;DHT22;51002;51.462;7.218;2023-05-07T12:49:25;22.70;58.40
41304;DHT22;51002;51.462;7.218;2023-05-07T12:51:50;22.50;59.40
41304;DHT22;51002;51.462;7.218;2023-05-07T12:54:32;22.30;59.20
41304;DHT22;51002;51.462;7.218;2023-05-07T12:57:09;22.20;58.80
41304;DHT22;51002;51.462;7.218;2023-05-07T12:59:44;22.20;59.00
41304;DHT22;51002;51.462;7.218;2023-05-07T13:02:12;22.10;60.30
41304;DHT22;51002;51.462;7.218;2023-05-07T13:04:40;21.90;58.20
41304;DHT22;51002;51.462;7.218;2023-05-07T13:07:05;22.00;59.40
41304;DHT22;51002;51.462;7.218;2023-05-07T13:09:33;22.10;61.50
41304;DHT22;51002;51.462;7.218;2023-05-07T13:11:58;22.00;59.30
41304;DHT22;51002;51.462;7.218;2023-05-07T13:14:27;22.00;58.20
41304;DHT22;51002;51.462;7.218;2023-05-07T13:16:52;22.00;60.20
41304;DHT22;51002;51.462;7.218;2023-05-07T13:19:18;22.10;60.10
41304;DHT22;51002;51.462;7.218;2023-05-07T13:21:45;22.00;57.60
41304;DHT22;51002;51.462;7.218;2023-05-07T13:24:12;22.10;62.00
41304;DHT22;51002;51.462;7.218;2023-05-07T13:26:40;21.90;60.00
41304;DHT22;51002;51.462;7.218;2023-05-07T13:29:08;21.90;59.60
41304;DHT22;51002;51.462;7.218;2023-05-07T13:31:36;21.70;59.90
41304;DHT22;51002;51.462;7.218;2023-05-07T13:34:01;21.70;60.20
41304;DHT22;51002;51.462;7.218;2023-05-07T13:36:27;21.80;60.30
41304;DHT22;51002;51.462;7.218;2023-05-07T13:38:58;21.80;60.20
41304;DHT22;51002;51.462;7.218;2023-05-07T13:41:27;21.70;60.40
41304;DHT22;51002;51.462;7.218;2023-05-07T13:43:55;21.70;59.90
41304;DHT22;51002;51.462;7.218;2023-05-07T13:46:21;21.60;59.70
41304;DHT22;51002;51.462;7.218;2023-05-07T13:48:47;21.40;60.00
41304;DHT22;51002;51.462;7.218;2023-05-07T13:51:18;21.50;61.50
41304;DHT22;51002;51.462;7.218;2023-05-07T13:53:46;21.50;60.80
41304;DHT22;51002;51.462;7.218;2023-05-07T13:56:12;21.50;61.10
41304;DHT22;51002;51.462;7.218;2023-05-07T13:58:40;21.50;62.10
41304;DHT22;51002;51.462;7.218;2023-05-07T14:01:08;21.30;60.80
41304;DHT22;51002;51.462;7.218;2023-05-07T14:03:35;21.20;62.70
41304;DHT22;51002;51.462;7.218;2023-05-07T14:06:03;21.30;62.80
41304;DHT22;51002;51.462;7.218;2023-05-07T14:08:28;21.30;63.40
41304;DHT22;51002;51.462;7.218;2023-05-07T14:10:56;21.40;67.00
41304;DHT22;51002;51.462;7.218;2023-05-07T14:13:21;21.30;62.10
41304;DHT22;51002;51.462;7.218;2023-05-07T14:15:47;21.40;64.20
41304;DHT22;51002;51.462;7.218;2023-05-07T14:18:16;21.40;67.70
41304;DHT22;51002;51.462;7.218;2023-05-07T14:20:42;21.40;67.80
41304;DHT22;51002;51.462;7.218;2023-05-07T14:23:14;21.30;67.90
41304;DHT22;51002;51.462;7.218;2023-05-07T14:25:45;21.20;68.20
41304;DHT22;51002;51.462;7.218;2023-05-07T14:28:15;21.20;73.20
41304;DHT22;51002;51.462;7.218;2023-05-07T14:30:42;21.10;69.10
41304;DHT22;51002;51.462;7.218;2023-05-07T14:33:13;21.10;69.90
41304;DHT22;51002;51.462;7.218;2023-05-07T14:35:38;21.10;71.10
41304;DHT22;51002;51.462;7.218;2023-05-07T14:38:06;21.00;67.30
41304;DHT22;51002;51.462;7.218;2023-05-07T14:40:32;21.00;65.80
41304;DHT22;51002;51.462;7.218;2023-05-07T14:43:00;21.00;66.10
41304;DHT22;51002;51.462;7.218;2023-05-07T14:45:25;20.90;65.50
41304;DHT22;51002;51.462;7.218;2023-05-07T14:47:53;21.00;66.00
41304;DHT22;51002;51.462;7.218;2023-05-07T14:50:21;20.90;68.30
41304;DHT22;51002;51.462;7.218;2023-05-07T14:52:49;21.00;64.50
41304;DHT22;51002;51.462;7.218;2023-05-07T14:55:17;21.10;66.30
41304;DHT22;51002;51.462;7.218;2023-05-07T14:57:43;20.90;64.50
41304;DHT22;51002;51.462;7.218;2023-05-07T15:00:10;21.00;67.40
41304;DHT22;51002;51.462;7.218;2023-05-07T15:02:36;20.80;70.50
41304;DHT22;51002;51.462;7.218;2023-05-07T15:05:04;20.80;70.80
41304;DHT22;51002;51.462;7.218;2023-05-07T15:07:32;20.70;73.60
41304;DHT22;51002;51.462;7.218;2023-05-07T15:10:00;20.70;69.40
41304;DHT22;51002;51.462;7.218;2023-05-07T15:12:25;20.70;72.90
41304;DHT22;51002;51.462;7.218;2023-05-07T15:14:51;20.70;70.80
41304;DHT22;51002;51.462;7.218;2023-05-07T15:17:19;20.70;70.20
41304;DHT22;51002;51.462;7.218;2023-05-07T15:19:47;20.60;69.80
41304;DHT22;51002;51.462;7.218;2023-05-07T15:22:12;20.60;70.50
41304;DHT22;51002;51.462;7.218;2023-05-07T15:24:38;20.70;71.50
41304;DHT22;51002;51.462;7.218;2023-05-07T15:27:08;20.70;71.50
41304;DHT22;51002;51.462;7.218;2023-05-07T15:29:33;20.70;72.10
41304;DHT22;51002;51.462;7.218;2023-05-07T15:31:59;20.70;73.50
41304;DHT22;51002;51.462;7.218;2023-05-07T15:34:25;20.70;72.30
41304;DHT22;51002;51.462;7.218;2023-05-07T15:36:50;20.70;73.10
41304;DHT22;51002;51.462;7.218;2023-05-07T15:39:18;20.80;73.50
41304;DHT22;51002;51.462;7.218;2023-05-07T15:41:43;20.60;73.00
41304;DHT22;51002;51.462;7.218;2023-05-07T15:44:09;20.60;72.40
41304;DHT22;51002;51.462;7.218;2023-05-07T15:46:35;20.50;70.40
41304;DHT22;51002;51.462;7.218;2023-05-07T15:49:01;20.60;71.00
41304;DHT22;51002;51.462;7.218;2023-05-07T15:51:29;20.60;68.40
41304;DHT22;51002;51.462;7.218;2023-05-07T15:53:56;20.60;71.30